createdAt,value
2023-04-07T00:01:15.661Z,102047.22
2023-04-07T00:03:43.969Z,102045.25
2023-04-07T00:06:11.913Z,102051.50
2023-04-07T00:08:39.704Z,102045.00
2023-04-07T00:11:08.833Z,102049.09
2023-04-07T00:13:36.571Z,102045.00
2023-04-07T00:16:04.365Z,102046.97
2023-04-07T00:18:33.520Z,102043.53
2023-04-07T00:21:01.248Z,102042.84
2023-04-07T00:23:28.974Z,102047.69
2023-04-07T00:25:56.766Z,102046.53
2023-04-07T00:28:24.662Z,102053.44
2023-04-07T00:30:52.390Z,102045.44
2023-04-07T00:33:20.427Z,102037.34
2023-04-07T00:35:49.654Z,102054.19
2023-04-07T00:38:17.409Z,102045.78
2023-04-07T00:40:45.139Z,102063.09
2023-04-07T00:43:13.131Z,102051.19
2023-04-07T00:45:40.882Z,102048.03
2023-04-07T00:48:09.064Z,102043.47
2023-04-07T00:50:36.923Z,102043.38
2023-04-07T00:53:06.646Z,102045.25
2023-04-07T00:55:34.563Z,102044.72
2023-04-07T00:58:02.304Z,102039.38
2023-04-07T01:00:30.487Z,102046.53
2023-04-07T01:03:02.637Z,102041.19
2023-04-07T01:05:40.471Z,102035.50
2023-04-07T01:08:16.007Z,102030.94
2023-04-07T01:10:51.151Z,102032.28
2023-04-07T01:13:26.671Z,102028.78
2023-04-07T01:15:57.488Z,102036.19
2023-04-07T01:18:28.791Z,102025.59
2023-04-07T01:21:01.922Z,102036.19
2023-04-07T01:23:42.476Z,102039.59
2023-04-07T01:26:20.829Z,102031.03
2023-04-07T01:31:52.365Z,102023.06
2023-04-07T01:34:20.843Z,102020.75
2023-04-07T01:36:50.931Z,102026.09
2023-04-07T01:39:19.691Z,102017.38
2023-04-07T01:41:48.268Z,102015.78
2023-04-07T01:44:16.436Z,102007.19
2023-04-07T01:46:44.279Z,102014.66
2023-04-07T01:49:14.638Z,102020.41
2023-04-07T01:51:43.452Z,102009.13
2023-04-07T01:54:11.597Z,102000.03
2023-04-07T01:56:39.317Z,102009.06
2023-04-07T01:59:07.145Z,102012.13
2023-04-07T02:01:35.492Z,102006.47
2023-04-07T02:04:12.491Z,102003.63
2023-04-07T02:06:49.113Z,102004.53
2023-04-07T02:09:17.956Z,102003.75
2023-04-07T02:11:46.356Z,102009.16
2023-04-07T02:14:15.597Z,102013.31
2023-04-07T02:16:45.791Z,102006.06
2023-04-07T02:19:15.339Z,102007.41
2023-04-07T02:21:45.650Z,102012.84
2023-04-07T02:24:13.762Z,102006.59
2023-04-07T02:26:41.841Z,102013.09
2023-04-07T02:29:09.617Z,102014.34
2023-04-07T02:31:37.388Z,102013.59
2023-04-07T02:34:05.342Z,102012.38
2023-04-07T02:36:33.089Z,101999.94
2023-04-07T02:39:02.217Z,102012.78
2023-04-07T02:41:29.967Z,102013.75
2023-04-07T02:43:57.856Z,102009.19
2023-04-07T02:46:25.924Z,102014.56
2023-04-07T02:48:53.770Z,102001.47
2023-04-07T02:51:21.584Z,102008.84
2023-04-07T02:53:49.337Z,102008.94
2023-04-07T02:56:18.484Z,102008.56
2023-04-07T02:58:46.697Z,102004.59
2023-04-07T03:01:14.519Z,102004.06
2023-04-07T03:03:44.901Z,101995.94
2023-04-07T03:06:12.774Z,102003.16
2023-04-07T03:08:40.822Z,101999.66
2023-04-07T03:11:08.570Z,101989.78
2023-04-07T03:13:37.682Z,101998.84
2023-04-07T03:16:05.566Z,102003.28
2023-04-07T03:18:33.286Z,101994.84
2023-04-07T03:21:01.008Z,101998.84
2023-04-07T03:23:29.434Z,101993.56
2023-04-07T03:25:58.263Z,102005.03
2023-04-07T03:28:26.000Z,101994.97
2023-04-07T03:30:55.115Z,102000.78
2023-04-07T03:33:22.909Z,102006.66
2023-04-07T03:35:50.639Z,101997.72
2023-04-07T03:38:18.447Z,102003.34
2023-04-07T03:40:46.397Z,102004.72
2023-04-07T03:43:15.065Z,102003.19
2023-04-07T03:45:43.032Z,102002.97
2023-04-07T03:48:12.329Z,101998.50
2023-04-07T03:50:40.799Z,102004.00
2023-04-07T03:53:09.294Z,102015.66
2023-04-07T03:55:37.995Z,102012.53
2023-04-07T03:58:05.811Z,102010.47
2023-04-07T04:00:33.928Z,102005.16
2023-04-07T04:03:01.947Z,102020.22
2023-04-07T04:05:31.171Z,102000.28
2023-04-07T04:07:58.894Z,102014.88
2023-04-07T04:10:27.278Z,102013.59
2023-04-07T04:12:55.021Z,101998.81
2023-04-07T04:15:22.880Z,102005.53
2023-04-07T04:17:50.721Z,102004.38
2023-04-07T04:20:18.619Z,102009.75
2023-04-07T04:22:47.713Z,102013.88
2023-04-07T04:25:15.841Z,102019.75
2023-04-07T04:27:43.587Z,102011.41
2023-04-07T04:30:11.802Z,102024.75
2023-04-07T04:32:39.655Z,102023.44
2023-04-07T04:35:07.998Z,102028.63
2023-04-07T04:37:35.804Z,102021.41
2023-04-07T04:40:08.437Z,102015.94
2023-04-07T04:42:36.949Z,102006.59
2023-04-07T04:45:05.289Z,102006.69
2023-04-07T04:47:33.052Z,101990.09
2023-04-07T04:50:00.963Z,101984.56
2023-04-07T04:52:28.815Z,101972.03
2023-04-07T04:54:56.724Z,101957.59
2023-04-07T04:57:25.905Z,101960.13
2023-04-07T04:59:53.659Z,101972.03
2023-04-07T05:02:22.057Z,101960.66
2023-04-07T05:04:50.048Z,101954.38
2023-04-07T05:07:17.879Z,101956.22
2023-04-07T05:09:45.651Z,101955.28
2023-04-07T05:12:13.391Z,101931.16
2023-04-07T05:14:42.560Z,101940.81
2023-04-07T05:17:10.621Z,101944.75
2023-04-07T05:19:38.367Z,101937.03
2023-04-07T05:22:06.077Z,101942.50
2023-04-07T05:24:33.832Z,101961.78
2023-04-07T05:27:01.960Z,101951.50
2023-04-07T05:29:29.868Z,101959.44
2023-04-07T05:31:58.979Z,101954.63
2023-04-07T05:34:26.949Z,101951.56
2023-04-07T05:36:54.753Z,101952.78
2023-04-07T05:39:22.480Z,101951.00
2023-04-07T05:41:50.276Z,101940.66
2023-04-07T05:44:17.995Z,101958.88
2023-04-07T05:46:45.791Z,101948.69
2023-04-07T05:49:20.027Z,101958.00
2023-04-07T05:51:49.241Z,101956.88
2023-04-07T05:54:17.356Z,101960.63
2023-04-07T05:56:45.499Z,101947.44
2023-04-07T05:59:13.240Z,101955.47
2023-04-07T06:01:41.185Z,101951.63
2023-04-07T06:04:08.975Z,101959.28
2023-04-07T06:06:38.191Z,101963.50
2023-04-07T06:09:07.007Z,101957.97
2023-04-07T06:11:36.018Z,101982.28
2023-04-07T06:14:03.756Z,101987.44
2023-04-07T06:16:31.570Z,101979.41
2023-04-07T06:18:59.361Z,101994.16
2023-04-07T06:21:27.420Z,102001.28
2023-04-07T06:23:56.509Z,102007.84
2023-04-07T06:26:24.618Z,102012.34
2023-04-07T06:28:53.095Z,102005.34
2023-04-07T06:31:21.054Z,102005.69
2023-04-07T06:33:49.092Z,102005.59
2023-04-07T06:36:17.401Z,102013.31
2023-04-07T06:38:45.602Z,102024.59
2023-04-07T06:41:17.116Z,102031.41
2023-04-07T06:43:45.437Z,102028.34
2023-04-07T06:46:13.221Z,102008.72
2023-04-07T06:48:41.024Z,102004.84
2023-04-07T06:51:08.732Z,102015.38
2023-04-07T06:53:36.475Z,102010.66
2023-04-07T06:56:05.450Z,102024.41
2023-04-07T06:58:35.295Z,102043.38
2023-04-07T07:01:03.890Z,102033.13
2023-04-07T07:03:31.889Z,102038.03
2023-04-07T07:06:00.085Z,102025.44
2023-04-07T07:08:29.222Z,102031.41
2023-04-07T07:10:56.952Z,102021.97
2023-04-07T07:13:26.125Z,102045.81
2023-04-07T07:15:55.435Z,102051.06
2023-04-07T07:18:23.196Z,102049.03
2023-04-07T07:20:51.188Z,102069.88
2023-04-07T07:23:18.987Z,102065.84
2023-04-07T07:25:46.750Z,102068.59
2023-04-07T07:28:14.497Z,102072.31
2023-04-07T07:30:43.375Z,102064.03
2023-04-07T07:33:13.032Z,102073.16
2023-04-07T07:35:41.452Z,102085.94
2023-04-07T07:38:09.343Z,102093.75
2023-04-07T07:40:37.089Z,102091.16
2023-04-07T07:43:04.810Z,102083.81
2023-04-07T07:45:32.615Z,102088.09
2023-04-07T07:48:00.829Z,102093.19
2023-04-07T07:50:30.175Z,102105.34
2023-04-07T07:52:57.921Z,102100.41
2023-04-07T07:55:25.780Z,102118.44
2023-04-07T07:57:53.538Z,102125.53
2023-04-07T08:00:21.564Z,102121.72
2023-04-07T08:02:49.401Z,102127.47
2023-04-07T08:05:17.169Z,102134.56
2023-04-07T08:07:46.898Z,102132.38
2023-04-07T08:10:14.698Z,102130.69
2023-04-07T08:12:42.568Z,102142.56
2023-04-07T08:15:10.775Z,102147.47
2023-04-07T08:17:39.240Z,102152.19
2023-04-07T08:20:08.438Z,102142.75
2023-04-07T08:22:36.150Z,102143.94
2023-04-07T08:25:05.775Z,102147.28
2023-04-07T08:27:33.515Z,102149.34
2023-04-07T08:30:02.206Z,102153.38
2023-04-07T08:32:36.611Z,102154.88
2023-04-07T08:35:04.623Z,102157.19
2023-04-07T08:37:32.437Z,102156.25
2023-04-07T08:40:00.196Z,102160.47
2023-04-07T08:42:30.993Z,102145.06
2023-04-07T08:45:03.424Z,102145.88
2023-04-07T08:47:33.468Z,102151.97
2023-04-07T08:50:03.781Z,102149.63
2023-04-07T08:52:36.317Z,102153.00
2023-04-07T08:55:06.838Z,102157.22
2023-04-07T08:57:36.137Z,102158.50
2023-04-07T09:00:05.822Z,102160.78
2023-04-07T09:02:35.099Z,102166.91
2023-04-07T09:05:05.522Z,102163.03
2023-04-07T09:07:34.600Z,102160.47
2023-04-07T09:10:02.730Z,102158.69
2023-04-07T09:12:31.273Z,102164.34
2023-04-07T09:15:00.779Z,102157.13
2023-04-07T09:17:29.557Z,102170.84
2023-04-07T09:19:58.033Z,102168.22
2023-04-07T09:22:39.444Z,102166.41
2023-04-07T09:25:18.079Z,102157.63
2023-04-07T09:27:56.291Z,102163.22
2023-04-07T09:30:26.375Z,102160.13
2023-04-07T09:32:54.408Z,102162.75
2023-04-07T09:35:23.839Z,102150.41
2023-04-07T09:38:05.606Z,102145.72
2023-04-07T09:40:34.285Z,102160.53
2023-04-07T09:43:02.950Z,102146.75
2023-04-07T09:45:40.299Z,102157.00
2023-04-07T09:48:08.748Z,102162.56
2023-04-07T09:50:38.072Z,102156.06
2023-04-07T09:53:05.908Z,102160.78
2023-04-07T09:55:34.978Z,102152.38
2023-04-07T09:58:06.373Z,102151.13
2023-04-07T10:00:36.949Z,102158.91
2023-04-07T10:03:05.317Z,102159.50
2023-04-07T10:05:35.421Z,102152.50
2023-04-07T10:08:03.465Z,102148.47
2023-04-07T10:10:32.724Z,102150.88
2023-04-07T10:13:00.638Z,102152.72
2023-04-07T10:15:28.448Z,102143.22
2023-04-07T10:17:58.391Z,102148.47
2023-04-07T10:20:26.881Z,102147.00
2023-04-07T10:23:01.370Z,102140.34
2023-04-07T10:25:29.692Z,102145.91
2023-04-07T10:28:01.263Z,102149.72
2023-04-07T10:30:31.592Z,102157.44
2023-04-07T10:33:01.231Z,102147.78
2023-04-07T10:35:29.941Z,102148.81
2023-04-07T10:38:15.236Z,102151.56
2023-04-07T10:40:44.023Z,102146.34
2023-04-07T10:43:12.358Z,102142.53
2023-04-07T10:46:00.656Z,102142.34
2023-04-07T10:48:33.016Z,102126.63
2023-04-07T10:51:15.432Z,102123.91
2023-04-07T10:54:20.720Z,102121.03
2023-04-07T10:57:12.006Z,102118.31
2023-04-07T11:00:04.406Z,102115.66
2023-04-07T11:02:36.003Z,102102.97
2023-04-07T11:05:05.902Z,102104.59
2023-04-07T11:07:48.845Z,102121.06
2023-04-07T11:10:18.944Z,102134.69
2023-04-07T11:13:02.695Z,102115.78
2023-04-07T11:15:30.448Z,102122.66
2023-04-07T11:18:16.254Z,102120.00
2023-04-07T11:20:50.256Z,102100.34
2023-04-07T11:23:19.530Z,102116.41
2023-04-07T11:25:49.075Z,102114.06
2023-04-07T11:28:16.865Z,102114.47
2023-04-07T11:30:51.576Z,102113.34
2023-04-07T11:33:21.104Z,102103.53
2023-04-07T11:35:52.131Z,102106.47
2023-04-07T11:38:21.042Z,102114.53
2023-04-07T11:40:49.264Z,102116.31
2023-04-07T11:43:19.024Z,102104.94
2023-04-07T11:45:46.861Z,102101.09
2023-04-07T11:48:31.395Z,102097.97
2023-04-07T11:51:01.016Z,102096.66
2023-04-07T11:53:30.548Z,102100.81
2023-04-07T11:56:10.115Z,102100.41
2023-04-07T11:58:38.720Z,102092.59
2023-04-07T12:01:09.025Z,102080.31
2023-04-07T12:03:38.632Z,102060.13
2023-04-07T12:06:07.831Z,102054.16
2023-04-07T12:08:39.965Z,102033.81
2023-04-07T12:11:07.990Z,102045.81
2023-04-07T12:13:35.967Z,102033.91
2023-04-07T12:16:03.901Z,102010.09
2023-04-07T12:18:32.028Z,102010.66
2023-04-07T12:20:59.823Z,101998.22
2023-04-07T12:23:28.945Z,102013.94
2023-04-07T12:25:56.715Z,102008.19
2023-04-07T12:28:24.500Z,101997.75
2023-04-07T12:30:52.234Z,101990.31
2023-04-07T12:33:20.005Z,101992.22
2023-04-07T12:35:47.742Z,101982.31
2023-04-07T12:38:15.656Z,101959.59
2023-04-07T12:40:44.882Z,101946.72
2023-04-07T12:43:12.899Z,101928.16
2023-04-07T12:45:40.733Z,101936.97
2023-04-07T12:48:08.644Z,101964.81
2023-04-07T12:50:36.907Z,101929.34
2023-04-07T12:53:05.459Z,101963.34
2023-04-07T12:55:35.633Z,101975.44
2023-04-07T12:58:04.791Z,101957.72
2023-04-07T13:00:32.551Z,101979.03
2023-04-07T13:03:00.406Z,101955.06
2023-04-07T13:05:29.567Z,101932.50
2023-04-07T13:07:57.275Z,101906.44
2023-04-07T13:10:25.008Z,101880.47
2023-04-07T13:12:53.298Z,101903.34
2023-04-07T13:15:22.612Z,101882.53
2023-04-07T13:17:50.611Z,101916.97
2023-04-07T13:20:20.677Z,101892.41
2023-04-07T13:22:59.267Z,101888.84
2023-04-07T13:25:31.541Z,101914.72
2023-04-07T13:27:59.756Z,101922.22
2023-04-07T13:30:28.916Z,101925.81
2023-04-07T13:32:57.081Z,101910.47
2023-04-07T13:35:25.214Z,101917.72
2023-04-07T13:37:52.935Z,101923.38
2023-04-07T13:40:20.898Z,101938.66
2023-04-07T13:42:48.617Z,101950.59
2023-04-07T13:45:16.470Z,101921.56
2023-04-07T13:47:46.127Z,101946.69
2023-04-07T13:50:13.911Z,101939.88
2023-04-07T13:52:41.769Z,101977.59
2023-04-07T13:55:10.513Z,101981.13
2023-04-07T13:57:38.287Z,101986.69
2023-04-07T14:00:07.528Z,101995.81
2023-04-07T14:02:35.640Z,101988.44
2023-04-07T14:05:05.174Z,101945.91
2023-04-07T14:07:32.907Z,101938.16
2023-04-07T14:10:00.643Z,101908.22
2023-04-07T14:12:28.437Z,101898.38
2023-04-07T14:14:56.601Z,101900.00
2023-04-07T14:17:24.710Z,101918.44
2023-04-07T14:19:52.479Z,101904.38
2023-04-07T14:22:21.558Z,101900.91
2023-04-07T14:24:49.302Z,101910.09
2023-04-07T14:27:20.995Z,101900.50
2023-04-07T14:29:49.034Z,101927.78
2023-04-07T14:32:16.964Z,101937.75
2023-04-07T14:34:44.732Z,101950.25
2023-04-07T14:37:14.111Z,101940.84
2023-04-07T14:39:55.288Z,101929.97
2023-04-07T14:42:30.697Z,101861.66
2023-04-07T14:44:58.742Z,101866.22
2023-04-07T14:47:27.449Z,101881.09
2023-04-07T14:49:55.664Z,101867.91
2023-04-07T14:52:23.450Z,101858.19
2023-04-07T14:54:52.607Z,101874.72
2023-04-07T14:57:20.313Z,101875.19
2023-04-07T14:59:48.718Z,101854.72
2023-04-07T15:02:17.030Z,101859.50
2023-04-07T15:04:45.050Z,101856.09
2023-04-07T15:07:12.812Z,101859.03
2023-04-07T15:09:40.568Z,101876.56
2023-04-07T15:12:09.660Z,101885.91
2023-04-07T15:14:37.391Z,101875.75
2023-04-07T15:17:05.156Z,101852.78
2023-04-07T15:19:32.926Z,101838.84
2023-04-07T15:22:00.663Z,101834.50
2023-04-07T15:24:28.412Z,101860.22
2023-04-07T15:26:56.115Z,101838.75
2023-04-07T15:29:25.457Z,101829.16
2023-04-07T15:31:53.316Z,101791.53
2023-04-07T15:34:21.150Z,101810.34
2023-04-07T15:36:48.870Z,101797.50
2023-04-07T15:39:16.932Z,101822.84
2023-04-07T15:41:44.664Z,101802.13
2023-04-07T15:44:18.655Z,101825.84
2023-04-07T15:46:47.913Z,101804.59
2023-04-07T15:49:20.062Z,101804.53
2023-04-07T15:51:47.865Z,101832.66
2023-04-07T15:54:15.860Z,101845.56
2023-04-07T15:56:43.590Z,101839.59
2023-04-07T15:59:11.350Z,101827.53
2023-04-07T16:01:39.425Z,101808.88
2023-04-07T16:04:08.933Z,101778.97
2023-04-07T16:06:36.812Z,101768.34
2023-04-07T16:09:05.056Z,101756.25
2023-04-07T16:11:32.859Z,101731.41
2023-04-07T16:14:00.660Z,101729.91
2023-04-07T16:16:28.628Z,101721.78
2023-04-07T16:18:56.401Z,101719.81
2023-04-07T16:21:26.557Z,101716.59
2023-04-07T16:23:54.298Z,101728.94
2023-04-07T16:26:22.133Z,101750.59
2023-04-07T16:28:50.485Z,101771.06
2023-04-07T16:31:18.290Z,101758.78
2023-04-07T16:33:46.191Z,101757.94
2023-04-07T16:36:14.046Z,101740.13
2023-04-07T16:38:43.181Z,101741.16
2023-04-07T16:41:10.980Z,101727.81
2023-04-07T16:43:38.881Z,101721.13
2023-04-07T16:46:06.936Z,101730.91
2023-04-07T16:48:34.756Z,101737.53
2023-04-07T16:51:02.522Z,101751.72
2023-04-07T16:53:30.237Z,101770.72
2023-04-07T16:55:59.339Z,101747.63
2023-04-07T16:58:27.094Z,101738.16
2023-04-07T17:00:54.838Z,101744.06
2023-04-07T17:03:22.638Z,101755.19
2023-04-07T17:05:51.048Z,101767.53
2023-04-07T17:08:18.798Z,101783.78
2023-04-07T17:10:46.574Z,101804.38
2023-04-07T17:13:15.879Z,101840.53
2023-04-07T17:15:43.670Z,101852.66
2023-04-07T17:18:11.450Z,101849.13
2023-04-07T17:20:39.321Z,101832.19
2023-04-07T17:23:07.053Z,101810.56
2023-04-07T17:25:34.776Z,101854.97
2023-04-07T17:28:02.522Z,101849.28
2023-04-07T17:30:31.683Z,101856.72
2023-04-07T17:32:59.430Z,101869.41
2023-04-07T17:35:27.195Z,101871.97
2023-04-07T17:37:56.504Z,101869.28
2023-04-07T17:40:24.562Z,101858.78
2023-04-07T17:42:52.299Z,101857.88
2023-04-07T17:45:20.073Z,101894.63
2023-04-07T17:47:49.320Z,101884.06
2023-04-07T17:50:17.260Z,101874.66
2023-04-07T17:52:45.291Z,101879.97
2023-04-07T17:55:13.242Z,101881.53
2023-04-07T17:57:42.272Z,101866.13
2023-04-07T18:00:10.586Z,101883.81
2023-04-07T18:02:40.318Z,101872.88
2023-04-07T18:05:10.653Z,101921.72
2023-04-07T18:07:38.813Z,101908.13
2023-04-07T18:10:07.620Z,101888.22
2023-04-07T18:12:35.432Z,101907.69
2023-04-07T18:15:03.209Z,101912.09
2023-04-07T18:17:31.185Z,101919.97
2023-04-07T18:19:58.965Z,101885.69
2023-04-07T18:22:28.201Z,101899.22
2023-04-07T18:24:55.914Z,101905.44
2023-04-07T18:27:25.288Z,101914.34
2023-04-07T18:29:53.026Z,101880.34
2023-04-07T18:32:20.784Z,101890.16
2023-04-07T18:34:48.837Z,101897.34
2023-04-07T18:37:16.599Z,101905.47
2023-04-07T18:39:45.741Z,101889.13
2023-04-07T18:42:13.528Z,101915.88
2023-04-07T18:44:41.285Z,101860.41
2023-04-07T18:47:09.010Z,101867.28
2023-04-07T18:49:37.230Z,101859.84
2023-04-07T18:52:04.975Z,101844.28
2023-04-07T18:54:32.878Z,101851.69
2023-04-07T18:57:02.532Z,101852.66
2023-04-07T18:59:30.969Z,101852.22
2023-04-07T19:01:58.804Z,101874.72
2023-04-07T19:04:26.612Z,101850.78
2023-04-07T19:06:54.896Z,101853.50
2023-04-07T19:09:22.630Z,101867.63
2023-04-07T19:11:51.354Z,101870.75
2023-04-07T19:14:20.466Z,101878.16
2023-04-07T19:16:48.355Z,101875.47
2023-04-07T19:19:17.296Z,101893.44
2023-04-07T19:21:45.238Z,101883.31
2023-04-07T19:24:12.956Z,101886.97
2023-04-07T19:26:40.966Z,101897.31
2023-04-07T19:29:10.639Z,101921.63
2023-04-07T19:31:40.073Z,101895.56
2023-04-07T19:34:07.808Z,101884.34
2023-04-07T19:36:35.733Z,101913.84
2023-04-07T19:39:05.293Z,101901.69
2023-04-07T19:41:33.069Z,101876.50
2023-04-07T19:44:01.151Z,101869.75
2023-04-07T19:46:29.197Z,101855.31
2023-04-07T19:48:58.332Z,101823.84
2023-04-07T19:51:26.061Z,101830.38
2023-04-07T19:53:53.811Z,101827.16
2023-04-07T19:56:21.573Z,101850.25
2023-04-07T19:58:49.566Z,101821.97
2023-04-07T20:01:17.989Z,101822.06
2023-04-07T20:03:46.843Z,101835.03
2023-04-07T20:06:17.174Z,101841.41
2023-04-07T20:08:44.927Z,101861.53
2023-04-07T20:11:13.416Z,101878.09
2023-04-07T20:13:42.354Z,101877.03
2023-04-07T20:16:10.460Z,101859.78
2023-04-07T20:18:38.305Z,101854.88
2023-04-07T20:21:06.943Z,101864.00
2023-04-07T20:23:36.592Z,101861.94
2023-04-07T20:26:04.343Z,101850.81
2023-04-07T20:28:32.283Z,101849.63
2023-04-07T20:31:00.415Z,101855.66
2023-04-07T20:33:28.220Z,101830.34
2023-04-07T20:35:56.290Z,101845.06
2023-04-07T20:38:25.003Z,101855.75
2023-04-07T20:40:54.310Z,101838.56
2023-04-07T20:43:23.731Z,101844.47
2023-04-07T20:45:52.167Z,101834.81
2023-04-07T20:48:23.779Z,101827.38
2023-04-07T20:50:52.061Z,101842.41
2023-04-07T20:53:19.855Z,101840.25
2023-04-07T20:55:48.389Z,101846.00
2023-04-07T20:58:18.558Z,101861.16
2023-04-07T21:00:46.645Z,101883.13
2023-04-07T21:03:14.926Z,101846.06
2023-04-07T21:05:43.497Z,101852.50
2023-04-07T21:08:13.255Z,101862.31
2023-04-07T21:10:42.252Z,101868.94
2023-04-07T21:13:09.978Z,101856.25
2023-04-07T21:15:39.095Z,101865.00
2023-04-07T21:18:06.973Z,101880.06
2023-04-07T21:20:36.921Z,101821.72
2023-04-07T21:23:05.494Z,101806.28
2023-04-07T21:25:33.253Z,101804.94
2023-04-07T21:28:01.071Z,101809.97
2023-04-07T21:30:28.836Z,101792.88
2023-04-07T21:32:59.066Z,101769.00
2023-04-07T21:35:28.325Z,101785.25
2023-04-07T21:37:56.807Z,101783.16
2023-04-07T21:40:24.570Z,101777.31
2023-04-07T21:42:52.910Z,101791.56
2023-04-07T21:45:20.676Z,101804.59
2023-04-07T21:47:48.428Z,101778.72
2023-04-07T21:50:17.606Z,101773.69
2023-04-07T21:52:45.357Z,101792.22
2023-04-07T21:55:13.297Z,101792.38
2023-04-07T21:57:41.112Z,101789.13
2023-04-07T22:00:10.674Z,101788.78
2023-04-07T22:02:39.050Z,101778.06
2023-04-07T22:05:07.484Z,101773.44
2023-04-07T22:07:36.574Z,101783.41
2023-04-07T22:10:06.293Z,101790.09
2023-04-07T22:12:34.024Z,101783.25
2023-04-07T22:15:01.830Z,101767.72
2023-04-07T22:17:29.666Z,101748.69
2023-04-07T22:19:57.447Z,101760.25
2023-04-07T22:22:25.303Z,101785.81
2023-04-07T22:24:54.401Z,101786.72
2023-04-07T22:27:22.122Z,101811.81
2023-04-07T22:29:49.879Z,101799.78
2023-04-07T22:32:17.663Z,101791.03
2023-04-07T22:34:45.712Z,101797.06
2023-04-07T22:37:13.616Z,101801.06
2023-04-07T22:39:41.330Z,101823.03
2023-04-07T22:42:10.435Z,101831.13
2023-04-07T22:44:38.209Z,101824.19
2023-04-07T22:47:06.035Z,101804.47
2023-04-07T22:49:33.923Z,101804.97
2023-04-07T22:52:01.637Z,101815.25
2023-04-07T22:54:29.464Z,101807.06
2023-04-07T22:56:57.431Z,101816.25
2023-04-07T22:59:26.545Z,101802.56
2023-04-07T23:01:56.306Z,101798.88
2023-04-07T23:04:25.565Z,101803.31
2023-04-07T23:06:53.273Z,101802.81
2023-04-07T23:09:21.005Z,101801.59
2023-04-07T23:11:48.778Z,101790.66
2023-04-07T23:14:16.544Z,101802.63
2023-04-07T23:16:45.713Z,101799.31
2023-04-07T23:19:15.711Z,101797.72
2023-04-07T23:21:44.157Z,101795.38
2023-04-07T23:24:12.159Z,101806.78
2023-04-07T23:26:39.961Z,101805.47
2023-04-07T23:29:07.744Z,101794.66
2023-04-07T23:31:36.160Z,101812.59
2023-04-07T23:34:05.739Z,101795.94
2023-04-07T23:36:33.479Z,101793.03
2023-04-07T23:39:02.324Z,101782.41
2023-04-07T23:41:30.046Z,101781.28
2023-04-07T23:43:57.823Z,101784.59
2023-04-07T23:46:25.841Z,101783.66
2023-04-07T23:48:53.699Z,101775.28
2023-04-07T23:51:22.860Z,101780.31
2023-04-07T23:53:50.759Z,101782.69
2023-04-07T23:56:18.543Z,101772.69
2023-04-07T23:58:46.617Z,101781.50
